BIENTÔT MET'MAP
version 2.0 !

Prévue avant fin octobre,
la nouvelle version sera
plus belle, plus complète
et hébergée sur un serveur
3 fois plus puissant...
et toujours gratuite !


Pas compatible ?
Essayez la version Mobile !

SE CONNECTER : | S'inscrire | Disclaimer | Découvrir Orbifly |
Code OACI :

TAF - LGHI Omiros - 13 Jul 2020 04:27 UTC - Data Source NOAA   


- Altitude de l'aérodrome : 15 ft
- Code IATA : JKH
- Pas de NOTAMs connus.


LGHI - Omiros

Dernier METAR connu : 2015/08/11 07:50 LGHI 110750Z 11003KT CAVOK 29/21 Q1010
TAF TAF LGHI
Valide du 13 à 00h jusqu'au 13 à 09h UTC


122300Z 1300/1309 36015KT 9999 FEW025
TEMPO 1304/1309 36015G25KT

Source NOAA


MET'MAP, la Météo Aéronautique d'un coup d'oeil ! - Copyright ORBIFLY Décembre 2007

Développement & Programmation : Alexandra Zaïnal
Co-Développement : Marc-Olivier Méhu
Soutien technique & logistique : Manuel Goepfert
Conception & Financement : Baudouin d'Aumeries